Time;durP1;ratioP1;P1;durP2;ratioP2;P2;SDS_P1;SDS_P2;PMS_P1;PMS_P2;Temp;Humidity;BMP_temperature;BMP_pressure;BME280_temperature;BME280_humidity;BME280_pressure;Samples;Min_cycle;Max_cycle;Signal;HPM_P1;HPM_P2
2022/01/04 00:02:17;;;;;;;24.02;4.22;;;;;;;;;;5027760;28;20077;-81
2022/01/04 00:04:43;;;;;;;27.83;4.47;;;;;;;;;;5009502;28;20107;-81
2022/01/04 00:07:09;;;;;;;21.52;4.80;;;;;;;;;;5027941;28;20120;-81
2022/01/04 00:09:39;;;;;;;29.70;4.65;;;;;;;;;;5027167;28;20033;-81
2022/01/04 00:14:51;;;;;;;22.92;4.47;;;;;;;;;;5020853;28;20126;-80
2022/01/04 00:17:17;;;;;;;21.80;4.72;;;;;;;;;;5005411;28;20046;-80
2022/01/04 00:19:43;;;;;;;28.05;4.95;;;;;;;;;;5023535;28;20070;-82
2022/01/04 00:22:09;;;;;;;23.55;4.70;;;;;;;;;;5008860;28;20059;-80
2022/01/04 00:24:36;;;;;;;28.92;5.28;;;;;;;;;;5009015;28;20088;-80
2022/01/04 00:27:02;;;;;;;42.08;8.23;;;;;;;;;;5026331;28;20057;-80
2022/01/04 00:29:29;;;;;;;28.30;4.85;;;;;;;;;;5026754;28;20124;-81
2022/01/04 00:31:55;;;;;;;26.83;5.65;;;;;;;;;;5008135;28;20136;-81
2022/01/04 00:34:21;;;;;;;26.08;6.28;;;;;;;;;;5024826;28;20413;-81
2022/01/04 00:36:47;;;;;;;30.13;5.65;;;;;;;;;;5025209;28;20043;-81
2022/01/04 00:39:13;;;;;;;22.92;5.03;;;;;;;;;;5025257;28;20041;-80
2022/01/04 00:41:39;;;;;;;25.85;5.45;;;;;;;;;;5007517;28;20037;-81
2022/01/04 00:44:05;;;;;;;26.63;5.45;;;;;;;;;;5024766;28;20899;-81
2022/01/04 00:46:32;;;;;;;31.40;7.03;;;;;;;;;;5004183;28;20437;-80
2022/01/04 00:49:10;;;;;;;23.40;5.75;;;;;;;;;;5023760;28;20038;-80
2022/01/04 00:51:48;;;;;;;19.70;4.70;;;;;;;;;;5023647;28;20066;-81
2022/01/04 00:54:14;;;;;;;39.40;7.53;;;;;;;;;;5015793;28;20045;-81
2022/01/04 00:56:41;;;;;;;27.10;4.63;;;;;;;;;;5024840;28;20029;-81
2022/01/04 00:59:07;;;;;;;31.98;6.28;;;;;;;;;;5023776;28;20047;-81
2022/01/04 01:01:34;;;;;;;28.60;6.05;;;;;;;;;;5024033;28;20041;-81
2022/01/04 01:04:00;;;;;;;30.58;6.28;;;;;;;;;;5023576;28;20505;-81
2022/01/04 01:06:26;;;;;;;34.05;5.90;;;;;;;;;;5007276;28;20041;-80
2022/01/04 01:08:52;;;;;;;30.52;6.50;;;;;;;;;;5024965;28;20124;-82
2022/01/04 01:11:19;;;;;;;28.25;5.85;;;;;;;;;;5007549;28;20072;-81
2022/01/04 01:13:45;;;;;;;29.67;5.70;;;;;;;;;;4987280;28;20121;-82
2022/01/04 01:16:11;;;;;;;30.92;6.10;;;;;;;;;;5023487;28;20040;-81
2022/01/04 01:18:38;;;;;;;25.05;5.82;;;;;;;;;;5006770;28;20045;-82
2022/01/04 01:21:05;;;;;;;44.10;7.45;;;;;;;;;;5006869;28;20146;-80
2022/01/04 01:23:31;;;;;;;34.65;7.07;;;;;;;;;;5007249;28;20041;-81
2022/01/04 01:25:58;;;;;;;26.98;7.00;;;;;;;;;;5006984;28;20037;-81
2022/01/04 01:28:24;;;;;;;28.40;7.05;;;;;;;;;;5022888;28;20045;-81
2022/01/04 01:30:50;;;;;;;30.83;6.88;;;;;;;;;;5019274;28;20038;-82
2022/01/04 01:33:17;;;;;;;33.80;7.68;;;;;;;;;;5013788;28;20041;-81
2022/01/04 01:35:43;;;;;;;30.83;7.05;;;;;;;;;;5029550;28;20103;-81
2022/01/04 01:38:10;;;;;;;25.15;7.05;;;;;;;;;;5028628;28;20045;-82
2022/01/04 01:40:37;;;;;;;31.10;6.78;;;;;;;;;;5010248;28;20081;-82
2022/01/04 01:43:04;;;;;;;36.70;9.15;;;;;;;;;;5026954;28;20044;-81
2022/01/04 01:45:30;;;;;;;26.88;7.40;;;;;;;;;;5029666;28;20477;-83
2022/01/04 01:47:56;;;;;;;39.25;10.90;;;;;;;;;;5027102;28;20120;-81
2022/01/04 01:50:22;;;;;;;28.20;8.13;;;;;;;;;;5028515;28;20151;-81
2022/01/04 01:52:49;;;;;;;28.73;7.75;;;;;;;;;;5025461;28;20084;-82
2022/01/04 01:55:17;;;;;;;35.47;8.68;;;;;;;;;;5029442;28;20040;-81
2022/01/04 01:57:43;;;;;;;32.60;9.30;;;;;;;;;;5028313;28;20065;-82
2022/01/04 02:00:11;;;;;;;35.25;8.20;;;;;;;;;;5027086;28;20050;-81
2022/01/04 02:02:37;;;;;;;35.55;9.60;;;;;;;;;;5009947;28;20042;-82
2022/01/04 02:05:03;;;;;;;25.00;7.68;;;;;;;;;;5029580;28;20049;-81
2022/01/04 02:07:30;;;;;;;32.47;9.77;;;;;;;;;;5026521;28;20436;-82
2022/01/04 02:10:04;;;;;;;36.22;9.73;;;;;;;;;;5027024;28;20034;-82
2022/01/04 02:12:38;;;;;;;41.92;10.20;;;;;;;;;;5027499;28;20046;-82
2022/01/04 02:15:05;;;;;;;41.40;11.07;;;;;;;;;;5027998;28;20037;-82
2022/01/04 02:17:31;;;;;;;47.97;10.63;;;;;;;;;;5028223;28;20563;-82
2022/01/04 02:19:58;;;;;;;42.58;11.05;;;;;;;;;;5027500;28;20050;-81
2022/01/04 02:22:25;;;;;;;52.70;11.23;;;;;;;;;;5028313;28;20081;-82
2022/01/04 02:24:51;;;;;;;27.58;8.70;;;;;;;;;;5028738;28;20087;-83
2022/01/04 02:27:18;;;;;;;39.38;10.77;;;;;;;;;;5025974;28;20042;-83
2022/01/04 02:29:45;;;;;;;42.42;12.55;;;;;;;;;;5027844;28;20128;-84
2022/01/04 02:32:11;;;;;;;41.60;11.60;;;;;;;;;;5026729;28;20052;-83
2022/01/04 02:34:39;;;;;;;45.50;11.80;;;;;;;;;;5028939;28;20053;-83
2022/01/04 02:37:05;;;;;;;43.22;11.32;;;;;;;;;;5026320;28;20202;-82
2022/01/04 02:39:34;;;;;;;41.80;13.20;;;;;;;;;;5026735;28;20041;-82
2022/01/04 02:42:01;;;;;;;41.88;11.57;;;;;;;;;;5026914;28;20057;-83
2022/01/04 02:44:27;;;;;;;55.53;15.02;;;;;;;;;;5028519;28;20075;-81
2022/01/04 02:46:53;;;;;;;33.30;11.73;;;;;;;;;;5009861;28;20034;-81
2022/01/04 02:49:19;;;;;;;39.53;11.55;;;;;;;;;;5028446;28;20041;-83
2022/01/04 02:51:45;;;;;;;56.70;14.40;;;;;;;;;;5027812;28;20512;-83
2022/01/04 02:54:11;;;;;;;53.50;13.52;;;;;;;;;;5027930;28;20049;-82
2022/01/04 02:56:37;;;;;;;50.13;13.25;;;;;;;;;;5027207;28;20033;-82
2022/01/04 02:59:04;;;;;;;56.88;13.50;;;;;;;;;;5027963;28;20060;-82
2022/01/04 03:01:30;;;;;;;50.08;12.45;;;;;;;;;;5027377;28;20061;-82
2022/01/04 03:03:57;;;;;;;53.90;13.32;;;;;;;;;;5009756;28;20037;-82
2022/01/04 03:06:23;;;;;;;48.85;11.77;;;;;;;;;;5005612;28;20060;-82
2022/01/04 03:08:49;;;;;;;42.92;11.52;;;;;;;;;;5025711;28;20434;-82
2022/01/04 03:11:15;;;;;;;40.67;10.20;;;;;;;;;;5027495;28;20511;-83
2022/01/04 03:13:41;;;;;;;43.13;11.90;;;;;;;;;;5026191;28;20042;-81
2022/01/04 03:16:07;;;;;;;37.25;10.00;;;;;;;;;;5027245;28;20894;-82
2022/01/04 03:18:34;;;;;;;50.17;11.00;;;;;;;;;;5025148;28;20485;-83
2022/01/04 03:21:01;;;;;;;45.22;11.23;;;;;;;;;;5026667;28;20906;-82
2022/01/04 03:23:27;;;;;;;50.05;12.05;;;;;;;;;;5025573;28;20666;-81
2022/01/04 03:25:53;;;;;;;45.92;11.60;;;;;;;;;;5027265;28;20484;-83
2022/01/04 03:28:20;;;;;;;46.38;10.13;;;;;;;;;;5023852;28;20573;-84
2022/01/04 03:30:47;;;;;;;40.47;11.50;;;;;;;;;;5024694;28;20046;-82
2022/01/04 03:33:13;;;;;;;40.85;10.50;;;;;;;;;;5025073;28;20588;-83
2022/01/04 03:35:39;;;;;;;46.38;11.10;;;;;;;;;;5007676;28;20099;-83
2022/01/04 03:38:05;;;;;;;44.28;11.50;;;;;;;;;;5024173;28;20052;-82
2022/01/04 03:40:31;;;;;;;41.60;11.07;;;;;;;;;;5026160;28;20327;-83
2022/01/04 03:42:57;;;;;;;48.40;12.55;;;;;;;;;;5027456;28;20494;-83
2022/01/04 03:45:23;;;;;;;57.38;12.45;;;;;;;;;;5024562;28;20560;-83
2022/01/04 03:47:49;;;;;;;46.22;10.68;;;;;;;;;;5025568;28;20508;-83
2022/01/04 03:50:15;;;;;;;38.75;10.43;;;;;;;;;;5025094;28;20034;-83
2022/01/04 03:52:41;;;;;;;53.75;11.57;;;;;;;;;;5026616;28;20524;-83
2022/01/04 03:55:09;;;;;;;53.92;12.45;;;;;;;;;;5024357;28;20042;-82
2022/01/04 03:57:35;;;;;;;39.85;10.50;;;;;;;;;;5025561;28;20057;-82
2022/01/04 04:00:01;;;;;;;53.03;10.63;;;;;;;;;;5024436;28;20057;-82
2022/01/04 04:02:27;;;;;;;45.10;12.02;;;;;;;;;;5007600;28;20041;-82
2022/01/04 04:04:54;;;;;;;48.20;12.07;;;;;;;;;;5026871;28;20037;-83
2022/01/04 04:07:20;;;;;;;63.50;12.98;;;;;;;;;;5025846;28;20033;-83
2022/01/04 04:09:46;;;;;;;43.45;11.52;;;;;;;;;;5009288;28;20049;-83
2022/01/04 04:12:13;;;;;;;43.00;12.13;;;;;;;;;;5024427;28;20060;-84
2022/01/04 04:14:40;;;;;;;51.65;11.88;;;;;;;;;;5025685;28;20124;-83
2022/01/04 04:17:06;;;;;;;49.30;12.68;;;;;;;;;;5025615;28;20566;-84
2022/01/04 04:19:32;;;;;;;60.42;13.73;;;;;;;;;;5024830;28;20042;-83
2022/01/04 04:21:58;;;;;;;45.97;11.40;;;;;;;;;;5023780;28;20053;-83
2022/01/04 04:24:24;;;;;;;45.95;11.65;;;;;;;;;;5022884;28;20613;-83
2022/01/04 04:26:50;;;;;;;47.45;11.57;;;;;;;;;;5025256;28;20492;-83
2022/01/04 04:29:16;;;;;;;39.50;12.00;;;;;;;;;;5022949;28;20038;-83
2022/01/04 04:31:42;;;;;;;38.20;9.80;;;;;;;;;;5023753;28;20183;-83
2022/01/04 04:34:08;;;;;;;48.97;11.05;;;;;;;;;;5024127;28;20444;-83
2022/01/04 04:36:34;;;;;;;44.22;10.48;;;;;;;;;;5024590;28;20546;-83
2022/01/04 04:39:01;;;;;;;48.72;11.23;;;;;;;;;;5025569;28;20048;-83
2022/01/04 04:41:27;;;;;;;57.53;13.80;;;;;;;;;;5007490;28;20413;-83
2022/01/04 04:43:54;;;;;;;44.83;9.88;;;;;;;;;;5007773;28;20084;-84
2022/01/04 04:46:23;;;;;;;55.13;11.80;;;;;;;;;;4988447;28;20037;-82
2022/01/04 04:48:49;;;;;;;42.58;12.52;;;;;;;;;;5024219;28;20041;-84
2022/01/04 04:51:15;;;;;;;64.57;14.30;;;;;;;;;;5025234;28;20048;-84
2022/01/04 04:53:41;;;;;;;46.17;13.88;;;;;;;;;;5007471;28;20045;-83
2022/01/04 04:56:07;;;;;;;45.95;13.27;;;;;;;;;;5024932;28;20053;-83
2022/01/04 04:58:34;;;;;;;61.08;13.18;;;;;;;;;;5024225;28;20501;-82
2022/01/04 05:01:00;;;;;;;38.70;11.45;;;;;;;;;;5022071;28;20056;-82
2022/01/04 05:03:26;;;;;;;35.25;8.80;;;;;;;;;;5020231;28;20087;-84
2022/01/04 05:05:52;;;;;;;43.80;10.70;;;;;;;;;;5022616;28;20084;-82
2022/01/04 05:08:18;;;;;;;42.78;11.52;;;;;;;;;;5007920;28;20029;-84
2022/01/04 05:10:45;;;;;;;51.28;12.50;;;;;;;;;;5024226;28;20042;-83
2022/01/04 05:13:12;;;;;;;56.45;13.45;;;;;;;;;;5023309;28;20046;-85
2022/01/04 05:15:38;;;;;;;40.53;11.20;;;;;;;;;;5004196;28;20100;-83
2022/01/04 05:18:04;;;;;;;45.17;12.73;;;;;;;;;;5012624;28;20038;-84
2022/01/04 05:20:30;;;;;;;55.22;12.38;;;;;;;;;;5017074;28;20133;-83
2022/01/04 05:22:56;;;;;;;53.58;12.07;;;;;;;;;;5006226;28;20068;-84
2022/01/04 05:25:22;;;;;;;46.72;11.80;;;;;;;;;;5004734;28;20049;-83
2022/01/04 05:27:48;;;;;;;44.33;10.98;;;;;;;;;;5022671;28;20045;-83
2022/01/04 05:30:14;;;;;;;45.47;11.45;;;;;;;;;;5006956;28;20073;-84
2022/01/04 05:32:40;;;;;;;40.40;10.88;;;;;;;;;;5022160;28;20095;-84
2022/01/04 05:35:06;;;;;;;37.50;10.85;;;;;;;;;;5004563;28;20095;-82
2022/01/04 05:37:33;;;;;;;41.92;10.80;;;;;;;;;;5019870;28;20052;-83
2022/01/04 05:39:59;;;;;;;62.65;13.02;;;;;;;;;;5023357;28;20064;-83
2022/01/04 05:42:25;;;;;;;46.55;12.93;;;;;;;;;;5023139;28;20489;-83
2022/01/04 05:44:51;;;;;;;42.88;12.32;;;;;;;;;;5005724;28;20071;-82
2022/01/04 05:47:17;;;;;;;53.45;14.05;;;;;;;;;;5023212;28;20044;-83
2022/01/04 05:49:43;;;;;;;52.33;13.63;;;;;;;;;;5022407;28;20049;-83
2022/01/04 05:52:09;;;;;;;64.95;12.82;;;;;;;;;;5024096;28;20042;-83
2022/01/04 05:54:35;;;;;;;50.40;13.93;;;;;;;;;;5022572;28;20042;-82
2022/01/04 05:57:01;;;;;;;50.47;13.85;;;;;;;;;;5023293;28;20057;-83
2022/01/04 05:59:27;;;;;;;52.90;14.35;;;;;;;;;;5022845;28;20051;-83
2022/01/04 06:01:53;;;;;;;48.75;12.30;;;;;;;;;;5021609;28;20076;-83
2022/01/04 06:04:19;;;;;;;28.27;9.57;;;;;;;;;;5023145;28;20057;-83
2022/01/04 06:06:46;;;;;;;34.53;11.20;;;;;;;;;;5025612;28;20106;-83
2022/01/04 06:09:21;;;;;;;45.85;13.10;;;;;;;;;;5025669;28;20104;-82
2022/01/04 06:17:01;;;;;;;58.00;14.35;;;;;;;;;;5024618;28;20042;-81
2022/01/04 06:19:27;;;;;;;41.97;12.27;;;;;;;;;;5028254;28;20114;-81
2022/01/04 06:21:53;;;;;;;55.33;13.68;;;;;;;;;;5027911;28;20053;-81
2022/01/04 06:24:19;;;;;;;55.10;12.18;;;;;;;;;;5010678;28;20111;-82
2022/01/04 06:26:45;;;;;;;44.58;12.00;;;;;;;;;;5028125;28;20102;-82
2022/01/04 06:29:11;;;;;;;32.58;11.23;;;;;;;;;;5028420;28;20037;-83
2022/01/04 06:31:39;;;;;;;39.20;13.07;;;;;;;;;;5027369;28;20098;-81
2022/01/04 06:34:05;;;;;;;50.42;12.68;;;;;;;;;;5027576;28;20037;-84
2022/01/04 06:36:31;;;;;;;50.35;13.63;;;;;;;;;;5026812;28;20048;-85
2022/01/04 06:38:57;;;;;;;54.97;14.80;;;;;;;;;;5026405;28;20208;-84
2022/01/04 06:41:23;;;;;;;23.50;7.03;;;;;;;;;;5028201;28;20130;-83
2022/01/04 06:43:49;;;;;;;28.42;9.63;;;;;;;;;;5023489;28;20045;-84
2022/01/04 06:46:15;;;;;;;32.28;10.75;;;;;;;;;;5026615;28;20041;-85
2022/01/04 06:48:42;;;;;;;25.98;6.18;;;;;;;;;;5025367;28;20516;-83
2022/01/04 06:51:08;;;;;;;28.88;7.20;;;;;;;;;;5026817;28;20053;-84
2022/01/04 06:53:35;;;;;;;30.60;7.95;;;;;;;;;;5011315;28;20045;-84
2022/01/04 06:56:01;;;;;;;14.07;4.97;;;;;;;;;;5026804;28;20713;-84
2022/01/04 06:58:27;;;;;;;19.70;4.40;;;;;;;;;;5025748;28;20057;-84
2022/01/04 07:00:53;;;;;;;21.58;3.95;;;;;;;;;;5025823;28;20057;-84
2022/01/04 07:03:19;;;;;;;19.80;3.28;;;;;;;;;;5026414;28;20046;-84
2022/01/04 07:05:45;;;;;;;24.77;3.50;;;;;;;;;;5025396;28;20029;-84
2022/01/04 07:08:11;;;;;;;18.98;3.95;;;;;;;;;;5026066;28;20047;-83
2022/01/04 07:10:37;;;;;;;24.35;4.40;;;;;;;;;;5027196;28;20409;-83
2022/01/04 07:13:03;;;;;;;21.42;4.03;;;;;;;;;;5027162;28;20505;-84
2022/01/04 07:15:29;;;;;;;39.13;5.97;;;;;;;;;;5027064;28;20045;-85
2022/01/04 07:17:55;;;;;;;30.50;3.65;;;;;;;;;;5026003;28;20107;-85
2022/01/04 07:20:21;;;;;;;17.17;3.83;;;;;;;;;;5026242;28;20437;-85
2022/01/04 07:22:48;;;;;;;26.50;3.83;;;;;;;;;;5007784;28;20056;-84
2022/01/04 07:25:14;;;;;;;17.38;3.97;;;;;;;;;;5009098;28;20049;-84
2022/01/04 07:27:40;;;;;;;11.48;2.08;;;;;;;;;;5024398;28;20045;-84
2022/01/04 07:30:06;;;;;;;8.55;1.92;;;;;;;;;;5024462;28;20409;-84
2022/01/04 07:32:32;;;;;;;4.63;0.77;;;;;;;;;;5008043;28;20482;-84
2022/01/04 07:34:58;;;;;;;4.07;0.90;;;;;;;;;;5027047;28;20081;-83
2022/01/04 07:37:24;;;;;;;4.28;1.10;;;;;;;;;;5026932;28;20041;-83
2022/01/04 07:39:51;;;;;;;7.10;1.35;;;;;;;;;;5025877;28;20135;-83
2022/01/04 07:42:18;;;;;;;8.52;1.92;;;;;;;;;;5024326;28;20189;-84
2022/01/04 07:44:47;;;;;;;9.63;2.17;;;;;;;;;;5024173;28;20029;-84
2022/01/04 07:47:16;;;;;;;10.80;2.30;;;;;;;;;;5007986;28;20486;-85
2022/01/04 07:49:42;;;;;;;11.93;2.53;;;;;;;;;;5024682;28;20045;-85
2022/01/04 07:52:08;;;;;;;13.20;2.40;;;;;;;;;;5025114;28;20072;-83
2022/01/04 07:54:34;;;;;;;14.73;2.85;;;;;;;;;;5023918;28;20501;-84
2022/01/04 07:57:01;;;;;;;12.73;1.90;;;;;;;;;;5026027;28;20029;-83
2022/01/04 07:59:29;;;;;;;13.57;2.88;;;;;;;;;;5007397;28;20030;-83
2022/01/04 08:01:57;;;;;;;19.63;3.45;;;;;;;;;;5008159;28;20069;-85
2022/01/04 08:04:26;;;;;;;14.93;2.83;;;;;;;;;;5011313;28;20548;-84
2022/01/04 08:06:52;;;;;;;19.23;3.22;;;;;;;;;;5023727;28;20038;-83
2022/01/04 08:09:18;;;;;;;10.68;2.70;;;;;;;;;;4992432;28;20068;-83
2022/01/04 08:11:44;;;;;;;21.90;3.10;;;;;;;;;;5024220;28;20393;-83
2022/01/04 08:14:10;;;;;;;16.20;2.90;;;;;;;;;;5025791;28;20049;-84
2022/01/04 08:16:36;;;;;;;18.48;4.10;;;;;;;;;;5026661;28;20041;-83
2022/01/04 08:19:02;;;;;;;15.35;3.72;;;;;;;;;;5025195;28;20876;-84
2022/01/04 08:21:28;;;;;;;16.30;2.78;;;;;;;;;;5025335;28;20068;-83
2022/01/04 08:23:55;;;;;;;12.43;2.78;;;;;;;;;;5023423;28;20055;-83
2022/01/04 08:26:21;;;;;;;16.90;2.67;;;;;;;;;;5024392;28;20098;-82
2022/01/04 08:28:47;;;;;;;15.27;2.75;;;;;;;;;;5025240;28;20088;-84
2022/01/04 08:31:13;;;;;;;18.48;3.45;;;;;;;;;;5025911;28;20045;-83
2022/01/04 08:33:39;;;;;;;25.05;3.40;;;;;;;;;;5026761;28;20041;-84
2022/01/04 08:36:07;;;;;;;16.92;2.90;;;;;;;;;;4997000;28;20058;-84
2022/01/04 08:38:33;;;;;;;16.67;3.15;;;;;;;;;;5022826;28;20408;-84
2022/01/04 08:40:59;;;;;;;23.35;3.80;;;;;;;;;;5025689;28;20351;-83
2022/01/04 08:43:26;;;;;;;18.08;4.13;;;;;;;;;;5006498;28;20481;-83
2022/01/04 08:45:52;;;;;;;18.45;4.45;;;;;;;;;;5006652;28;20155;-83
2022/01/04 08:48:18;;;;;;;26.10;4.65;;;;;;;;;;5024245;28;20095;-84
2022/01/04 08:50:45;;;;;;;29.58;4.53;;;;;;;;;;5004021;28;20057;-84
2022/01/04 08:53:13;;;;;;;20.83;4.90;;;;;;;;;;5023034;28;20045;-84
2022/01/04 08:55:39;;;;;;;31.92;5.28;;;;;;;;;;5019849;28;20044;-84
2022/01/04 08:58:06;;;;;;;13.77;2.70;;;;;;;;;;5023874;28;20052;-84
2022/01/04 09:00:32;;;;;;;18.92;3.20;;;;;;;;;;5022918;28;20065;-83
2022/01/04 09:02:59;;;;;;;11.75;2.28;;;;;;;;;;5021918;28;20044;-83
2022/01/04 09:05:25;;;;;;;8.32;1.95;;;;;;;;;;5024828;28;20049;-85
2022/01/04 09:07:51;;;;;;;8.45;1.90;;;;;;;;;;5024500;28;20553;-83
2022/01/04 09:10:18;;;;;;;20.65;2.10;;;;;;;;;;5024372;28;20091;-83
2022/01/04 09:20:40;;;;;;;5.40;1.00;;;;;;;;;;5023188;28;20052;-83
2022/01/04 09:23:06;;;;;;;12.05;2.17;;;;;;;;;;5025193;28;20038;-83
2022/01/04 09:25:32;;;;;;;6.80;1.33;;;;;;;;;;5023874;28;20395;-83
2022/01/04 09:27:58;;;;;;;8.20;1.10;;;;;;;;;;5022766;28;20041;-82
2022/01/04 09:30:24;;;;;;;7.47;0.90;;;;;;;;;;5022437;28;20042;-83
2022/01/04 09:32:52;;;;;;;12.15;1.05;;;;;;;;;;5022366;28;20733;-83
2022/01/04 09:35:18;;;;;;;9.13;2.95;;;;;;;;;;5001084;28;20087;-83
2022/01/04 09:37:44;;;;;;;9.35;1.40;;;;;;;;;;5024161;28;20053;-83
2022/01/04 09:40:11;;;;;;;6.53;0.52;;;;;;;;;;5025336;28;20497;-83
2022/01/04 09:42:37;;;;;;;9.15;1.10;;;;;;;;;;5007461;28;20128;-83
2022/01/04 09:45:04;;;;;;;8.07;0.88;;;;;;;;;;5007960;28;20121;-83
2022/01/04 09:47:30;;;;;;;10.65;1.00;;;;;;;;;;5024380;28;20092;-83
2022/01/04 09:49:57;;;;;;;10.13;0.90;;;;;;;;;;5006907;28;20056;-84
2022/01/04 09:52:23;;;;;;;10.85;1.38;;;;;;;;;;5025682;28;20047;-84
2022/01/04 09:54:53;;;;;;;8.10;2.75;;;;;;;;;;5029975;28;20037;-83
2022/01/04 09:57:20;;;;;;;6.75;1.17;;;;;;;;;;5012267;28;20053;-83
2022/01/04 09:59:46;;;;;;;11.18;1.77;;;;;;;;;;5011558;28;20037;-84
2022/01/04 10:02:17;;;;;;;6.22;0.70;;;;;;;;;;5024234;28;20132;-84
2022/01/04 10:04:44;;;;;;;10.63;0.90;;;;;;;;;;5024762;28;20084;-84
2022/01/04 10:07:10;;;;;;;3.85;0.88;;;;;;;;;;5010935;28;20049;-82
2022/01/04 10:09:36;;;;;;;4.10;0.93;;;;;;;;;;5019860;28;20037;-84
2022/01/04 10:12:05;;;;;;;3.63;0.88;;;;;;;;;;5024563;28;20092;-83
2022/01/04 10:14:43;;;;;;;14.23;1.30;;;;;;;;;;5009480;28;20075;-84
2022/01/04 10:17:28;;;;;;;2.63;0.77;;;;;;;;;;5028913;28;20049;-82
2022/01/04 10:19:55;;;;;;;5.25;0.82;;;;;;;;;;5007871;28;20133;-84
2022/01/04 10:22:27;;;;;;;5.47;0.73;;;;;;;;;;4985924;28;20501;-83
2022/01/04 10:25:03;;;;;;;2.17;0.60;;;;;;;;;;4988613;28;20072;-82
2022/01/04 10:27:32;;;;;;;5.30;0.75;;;;;;;;;;4989516;28;20093;-83
2022/01/04 10:30:08;;;;;;;5.35;0.68;;;;;;;;;;4988861;28;20385;-82
2022/01/04 10:33:03;;;;;;;4.50;0.95;;;;;;;;;;5006870;28;20066;-83
2022/01/04 10:35:33;;;;;;;5.75;0.85;;;;;;;;;;4997614;28;20069;-82
2022/01/04 10:38:01;;;;;;;2.30;0.50;;;;;;;;;;5005915;28;20069;-82
2022/01/04 10:40:28;;;;;;;5.75;0.68;;;;;;;;;;4988160;28;20519;-82
2022/01/04 10:42:54;;;;;;;3.25;0.77;;;;;;;;;;5007345;28;20045;-83
2022/01/04 10:45:28;;;;;;;10.23;1.10;;;;;;;;;;4989594;28;20097;-83
2022/01/04 10:47:54;;;;;;;9.90;1.10;;;;;;;;;;4990435;28;20049;-84
2022/01/04 10:50:34;;;;;;;8.82;1.10;;;;;;;;;;5005339;28;20050;-84
2022/01/04 10:53:01;;;;;;;5.55;1.00;;;;;;;;;;5004607;28;20042;-82
2022/01/04 10:55:34;;;;;;;12.70;1.50;;;;;;;;;;5005379;28;20050;-83
2022/01/04 10:58:01;;;;;;;6.15;1.00;;;;;;;;;;5006023;28;20109;-83
2022/01/04 11:00:28;;;;;;;3.28;0.93;;;;;;;;;;5007842;28;20049;-83
2022/01/04 11:02:54;;;;;;;9.27;1.98;;;;;;;;;;4989389;28;20037;-83
2022/01/04 11:05:21;;;;;;;7.10;0.95;;;;;;;;;;5006531;28;20485;-84
2022/01/04 11:08:09;;;;;;;11.10;1.00;;;;;;;;;;5005782;28;20116;-82
2022/01/04 11:10:36;;;;;;;9.25;1.45;;;;;;;;;;4970829;28;20041;-83
2022/01/04 11:13:03;;;;;;;4.97;0.70;;;;;;;;;;5006547;28;20398;-81
2022/01/04 11:15:30;;;;;;;6.50;0.70;;;;;;;;;;5006577;28;20447;-82
2022/01/04 11:17:57;;;;;;;13.95;1.38;;;;;;;;;;5015344;28;20383;-82
2022/01/04 11:20:23;;;;;;;9.63;0.90;;;;;;;;;;5017507;28;20049;-82
2022/01/04 11:22:55;;;;;;;9.88;1.10;;;;;;;;;;5026607;28;20049;-82
2022/01/04 11:25:22;;;;;;;10.73;1.05;;;;;;;;;;5009101;28;20873;-82
2022/01/04 11:27:49;;;;;;;5.53;1.40;;;;;;;;;;5025517;28;20042;-82
2022/01/04 11:30:28;;;;;;;4.85;0.90;;;;;;;;;;5026118;28;20045;-81
2022/01/04 11:32:56;;;;;;;6.13;1.00;;;;;;;;;;5026269;28;20053;-81
2022/01/04 11:35:24;;;;;;;4.22;0.82;;;;;;;;;;5026831;28;20091;-81
2022/01/04 11:38:03;;;;;;;6.93;0.93;;;;;;;;;;5025400;28;20121;-81
2022/01/04 11:40:34;;;;;;;5.25;1.05;;;;;;;;;;4989263;28;20098;-82
2022/01/04 11:43:00;;;;;;;5.25;0.90;;;;;;;;;;5025602;28;20053;-81
2022/01/04 11:45:47;;;;;;;6.18;0.98;;;;;;;;;;5025783;28;20267;-82
2022/01/04 11:48:25;;;;;;;4.00;0.88;;;;;;;;;;5022687;28;20553;-81
2022/01/04 11:50:52;;;;;;;5.45;1.00;;;;;;;;;;5011126;28;20162;-81
2022/01/04 11:53:18;;;;;;;5.00;0.88;;;;;;;;;;5009161;28;20480;-81
2022/01/04 11:55:49;;;;;;;6.25;0.65;;;;;;;;;;5026904;28;20045;-82
2022/01/04 11:58:17;;;;;;;7.85;1.30;;;;;;;;;;5026375;28;20085;-82
2022/01/04 12:00:55;;;;;;;4.82;1.00;;;;;;;;;;5026351;28;20057;-81
2022/01/04 12:03:35;;;;;;;4.85;0.93;;;;;;;;;;5025341;28;20100;-82
2022/01/04 12:06:02;;;;;;;6.15;1.00;;;;;;;;;;5016874;28;20121;-82
2022/01/04 12:08:48;;;;;;;5.55;1.10;;;;;;;;;;5007519;28;20033;-83
2022/01/04 12:11:26;;;;;;;4.60;1.00;;;;;;;;;;5008568;28;20551;-83
2022/01/04 12:13:54;;;;;;;5.90;1.33;;;;;;;;;;5007488;28;20056;-84
2022/01/04 12:16:39;;;;;;;5.70;1.20;;;;;;;;;;5007299;28;20043;-83
2022/01/04 12:19:07;;;;;;;6.43;1.15;;;;;;;;;;5025086;28;20063;-84
2022/01/04 12:21:41;;;;;;;8.13;0.80;;;;;;;;;;5025638;28;20456;-83
2022/01/04 12:24:08;;;;;;;4.38;0.90;;;;;;;;;;4996907;28;20077;-83
2022/01/04 12:26:35;;;;;;;8.40;1.20;;;;;;;;;;5022556;28;20045;-83
2022/01/04 12:29:04;;;;;;;4.15;0.95;;;;;;;;;;5008654;28;20072;-83
2022/01/04 12:31:32;;;;;;;7.47;1.40;;;;;;;;;;5024301;28;20041;-82
2022/01/04 12:33:58;;;;;;;5.80;1.05;;;;;;;;;;5000864;28;20046;-82
2022/01/04 12:36:31;;;;;;;3.88;0.80;;;;;;;;;;5001876;28;20136;-84
2022/01/04 12:39:01;;;;;;;6.70;1.33;;;;;;;;;;5025127;28;20052;-82
2022/01/04 12:41:27;;;;;;;8.07;1.88;;;;;;;;;;5027052;28;20039;-83
2022/01/04 12:43:54;;;;;;;9.13;1.50;;;;;;;;;;5027113;28;20087;-83
2022/01/04 12:46:28;;;;;;;8.18;1.25;;;;;;;;;;5024174;28;20129;-82
2022/01/04 12:49:01;;;;;;;5.20;0.95;;;;;;;;;;5025902;28;20045;-82
2022/01/04 12:51:27;;;;;;;7.47;1.03;;;;;;;;;;5026578;28;20068;-84
2022/01/04 12:53:59;;;;;;;7.93;1.15;;;;;;;;;;5024827;28;20129;-83
2022/01/04 12:56:26;;;;;;;9.38;1.00;;;;;;;;;;5005659;28;20453;-82
2022/01/04 12:58:52;;;;;;;7.45;1.15;;;;;;;;;;5016165;28;20083;-83
2022/01/04 13:01:27;;;;;;;6.43;1.13;;;;;;;;;;5023374;28;20095;-83
2022/01/04 13:03:53;;;;;;;8.05;1.02;;;;;;;;;;4991602;28;20916;-83
2022/01/04 13:06:21;;;;;;;9.07;1.40;;;;;;;;;;5026688;28;20041;-83
2022/01/04 13:09:00;;;;;;;10.63;2.42;;;;;;;;;;5025896;28;20060;-83
2022/01/04 13:11:27;;;;;;;9.80;1.13;;;;;;;;;;5025423;28;20419;-83
2022/01/04 13:13:57;;;;;;;12.80;1.48;;;;;;;;;;5023263;28;20030;-83
2022/01/04 13:16:30;;;;;;;11.35;1.30;;;;;;;;;;5024518;28;20037;-82
2022/01/04 13:19:15;;;;;;;13.15;1.60;;;;;;;;;;5016293;28;20045;-83
2022/01/04 13:21:42;;;;;;;7.95;1.23;;;;;;;;;;5008397;28;20065;-83
2022/01/04 13:24:09;;;;;;;11.80;1.65;;;;;;;;;;5025549;28;20513;-83
2022/01/04 13:26:35;;;;;;;5.43;1.15;;;;;;;;;;5025067;28;20029;-83
2022/01/04 13:29:02;;;;;;;9.05;1.17;;;;;;;;;;5024966;28;20903;-83
2022/01/04 13:31:29;;;;;;;6.43;1.25;;;;;;;;;;5026237;28;20042;-83
2022/01/04 13:33:56;;;;;;;9.90;1.60;;;;;;;;;;5026188;28;20046;-83
2022/01/04 13:36:23;;;;;;;13.93;2.38;;;;;;;;;;5025443;28;20077;-82
2022/01/04 13:38:50;;;;;;;6.70;1.40;;;;;;;;;;5023785;28;20410;-83
2022/01/04 13:41:33;;;;;;;9.63;1.65;;;;;;;;;;5008321;28;20056;-83
2022/01/04 13:44:03;;;;;;;8.20;1.27;;;;;;;;;;5025911;28;20466;-83
2022/01/04 13:46:30;;;;;;;12.43;1.88;;;;;;;;;;5024505;28;20057;-82
2022/01/04 13:48:57;;;;;;;9.02;1.38;;;;;;;;;;5023976;28;20052;-83
2022/01/04 13:51:28;;;;;;;7.55;1.45;;;;;;;;;;5024121;28;20052;-83
2022/01/04 13:53:58;;;;;;;12.73;1.30;;;;;;;;;;4995558;28;20080;-83
2022/01/04 13:56:33;;;;;;;6.28;1.58;;;;;;;;;;5025025;28;20053;-83
2022/01/04 13:59:00;;;;;;;7.28;1.02;;;;;;;;;;5025119;28;20092;-83
2022/01/04 14:01:35;;;;;;;8.75;1.35;;;;;;;;;;4976036;28;20056;-84
2022/01/04 14:04:06;;;;;;;8.55;1.40;;;;;;;;;;5025154;28;20045;-84
2022/01/04 14:06:51;;;;;;;10.25;1.42;;;;;;;;;;5026324;28;20037;-83
2022/01/04 14:09:18;;;;;;;6.55;1.40;;;;;;;;;;5024163;28;20079;-82
2022/01/04 14:11:48;;;;;;;7.95;1.40;;;;;;;;;;5005314;28;20045;-83
2022/01/04 14:14:18;;;;;;;9.98;1.30;;;;;;;;;;5025963;28;20076;-83
2022/01/04 14:16:54;;;;;;;10.90;1.42;;;;;;;;;;5025074;28;20119;-83
2022/01/04 14:19:22;;;;;;;11.50;1.55;;;;;;;;;;5026427;28;20044;-83
2022/01/04 14:22:02;;;;;;;9.68;1.30;;;;;;;;;;5024585;28;20124;-83
2022/01/04 14:24:34;;;;;;;9.20;1.27;;;;;;;;;;5024210;28;20072;-83
2022/01/04 14:27:01;;;;;;;5.75;1.15;;;;;;;;;;5025439;28;20053;-83
2022/01/04 14:29:31;;;;;;;13.82;1.55;;;;;;;;;;5024809;28;20046;-83
2022/01/04 14:32:17;;;;;;;8.88;1.70;;;;;;;;;;5007020;28;20049;-83
2022/01/04 14:34:43;;;;;;;9.00;1.23;;;;;;;;;;4996355;28;20049;-83
2022/01/04 14:37:10;;;;;;;13.77;1.88;;;;;;;;;;5027468;28;20068;-84
2022/01/04 14:39:36;;;;;;;6.35;1.55;;;;;;;;;;5030236;28;20064;-83
2022/01/04 14:42:03;;;;;;;13.75;1.52;;;;;;;;;;5031552;28;20080;-84
2022/01/04 14:44:29;;;;;;;16.23;1.90;;;;;;;;;;5027915;28;20053;-83
2022/01/04 14:46:56;;;;;;;5.22;1.27;;;;;;;;;;5013208;28;20037;-84
2022/01/04 14:49:23;;;;;;;12.40;2.10;;;;;;;;;;5030283;28;20037;-83
2022/01/04 14:51:49;;;;;;;9.75;1.60;;;;;;;;;;5011857;28;20045;-83